createdAt,value
2023-04-01T00:01:33.519Z,10.06
2023-04-01T00:04:02.866Z,10.01
2023-04-01T00:06:29.564Z,10.02
2023-04-01T00:08:56.136Z,10.03
2023-04-01T00:11:27.533Z,10.10
2023-04-01T00:13:54.694Z,10.14
2023-04-01T00:16:22.786Z,10.01
2023-04-01T00:18:52.391Z,9.98
2023-04-01T00:21:22.769Z,10.02
2023-04-01T00:23:50.984Z,10.09
2023-04-01T00:26:20.088Z,10.07
2023-04-01T00:28:47.060Z,10.06
2023-04-01T00:31:18.456Z,10.12
2023-04-01T00:33:47.512Z,10.16
2023-04-01T00:36:19.651Z,10.05
2023-04-01T00:38:47.807Z,10.15
2023-04-01T00:41:16.922Z,10.06
2023-04-01T00:43:48.586Z,10.05
2023-04-01T00:46:17.391Z,10.14
2023-04-01T00:48:51.985Z,10.00
2023-04-01T00:51:22.904Z,10.07
2023-04-01T00:53:54.768Z,10.07
2023-04-01T00:56:27.872Z,10.07
2023-04-01T00:59:05.172Z,10.03
2023-04-01T01:01:32.764Z,10.04
2023-04-01T01:03:59.183Z,10.00
2023-04-01T01:06:34.393Z,10.05
2023-04-01T01:09:08.613Z,10.07
2023-04-01T01:11:44.116Z,10.13
2023-04-01T01:14:20.996Z,10.08
2023-04-01T01:16:57.573Z,10.06
2023-04-01T01:19:49.408Z,10.14
2023-04-01T01:22:46.842Z,10.13
2023-04-01T01:25:33.060Z,10.18
2023-04-01T01:28:18.131Z,10.28
2023-04-01T01:31:01.554Z,10.17
2023-04-01T01:33:43.552Z,10.10
2023-04-01T01:36:14.766Z,10.06
2023-04-01T01:38:41.369Z,10.09
2023-04-01T01:41:09.937Z,10.06
2023-04-01T01:43:43.082Z,10.15
2023-04-01T01:46:17.640Z,10.13
2023-04-01T01:48:46.486Z,10.31
2023-04-01T01:51:12.887Z,10.20
2023-04-01T01:53:39.524Z,10.30
2023-04-01T01:56:10.815Z,10.33
2023-04-01T01:59:01.445Z,10.17
2023-04-01T02:01:33.329Z,10.23
2023-04-01T02:04:03.427Z,10.29
2023-04-01T02:06:35.767Z,10.32
2023-04-01T02:09:04.853Z,10.32
2023-04-01T02:11:37.149Z,10.35
2023-04-01T02:14:12.082Z,10.42
2023-04-01T02:16:50.713Z,10.34
2023-04-01T02:19:23.410Z,10.34
2023-04-01T02:22:14.440Z,10.33
2023-04-01T02:24:43.079Z,10.36
2023-04-01T02:27:11.538Z,10.36
2023-04-01T02:29:40.810Z,10.31
2023-04-01T02:32:08.472Z,10.38
2023-04-01T02:34:35.177Z,10.35
2023-04-01T02:37:01.972Z,10.41
2023-04-01T02:39:28.605Z,10.36
2023-04-01T02:41:55.170Z,10.39
2023-04-01T02:44:21.668Z,10.32
2023-04-01T02:46:48.164Z,10.34
2023-04-01T02:49:14.764Z,10.40
2023-04-01T02:51:41.105Z,10.36
2023-04-01T02:54:09.925Z,10.43
2023-04-01T02:56:38.703Z,10.34
2023-04-01T02:59:05.121Z,10.49
2023-04-01T03:01:31.750Z,10.33
2023-04-01T03:03:58.263Z,10.24
2023-04-01T03:06:24.704Z,10.27
2023-04-01T03:08:53.808Z,10.36
2023-04-01T03:11:22.909Z,10.29
2023-04-01T03:13:49.760Z,10.28
2023-04-01T03:16:16.381Z,10.36
2023-04-01T03:18:42.959Z,10.38
2023-04-01T03:21:22.156Z,10.33
2023-04-01T03:23:48.772Z,10.30
2023-04-01T03:26:15.883Z,10.33
2023-04-01T03:28:42.514Z,10.38
2023-04-01T03:31:09.179Z,10.23
2023-04-01T03:33:35.569Z,10.33
2023-04-01T03:36:02.160Z,10.31
2023-04-01T03:38:28.709Z,10.36
2023-04-01T03:40:55.339Z,10.31
2023-04-01T03:43:22.356Z,10.38
2023-04-01T03:45:51.012Z,10.40
2023-04-01T03:48:18.241Z,10.24
2023-04-01T03:50:45.294Z,10.36
2023-04-01T03:53:12.024Z,10.37
2023-04-01T03:55:38.892Z,10.44
2023-04-01T03:58:07.388Z,10.44
2023-04-01T04:00:34.168Z,10.46
2023-04-01T04:03:00.789Z,10.43
2023-04-01T04:05:28.080Z,10.48
2023-04-01T04:07:54.843Z,10.50
2023-04-01T04:10:23.335Z,10.51
2023-04-01T04:12:50.873Z,10.29
2023-04-01T04:15:17.284Z,10.53
2023-04-01T04:17:51.698Z,10.31
2023-04-01T04:20:18.145Z,10.25
2023-04-01T04:22:46.972Z,10.12
2023-04-01T04:25:13.415Z,10.11
2023-04-01T04:27:40.237Z,10.07
2023-04-01T04:30:08.260Z,10.03
2023-04-01T04:32:38.339Z,10.05
2023-04-01T04:35:07.314Z,9.86
2023-04-01T04:37:33.668Z,9.89
2023-04-01T04:40:00.104Z,9.91
2023-04-01T04:42:26.496Z,9.82
2023-04-01T04:44:52.837Z,9.57
2023-04-01T04:47:21.919Z,9.66
2023-04-01T04:49:48.380Z,9.58
2023-04-01T04:52:17.821Z,9.69
2023-04-01T04:54:44.417Z,9.48
2023-04-01T04:57:10.935Z,9.56
2023-04-01T04:59:38.103Z,9.65
2023-04-01T05:02:04.877Z,9.63
2023-04-01T05:04:35.524Z,9.63
2023-04-01T05:07:01.897Z,9.53
2023-04-01T05:09:28.269Z,9.62
2023-04-01T05:11:54.601Z,9.65
2023-04-01T05:14:21.090Z,9.60
2023-04-01T05:16:47.507Z,9.69
2023-04-01T05:19:14.053Z,9.62
2023-04-01T05:21:40.379Z,9.52
2023-04-01T05:24:10.412Z,9.58
2023-04-01T05:26:39.113Z,9.73
2023-04-01T05:29:06.333Z,9.57
2023-04-01T05:31:32.988Z,9.62
2023-04-01T05:33:59.451Z,9.57
2023-04-01T05:36:25.913Z,9.60
2023-04-01T05:38:56.020Z,9.67
2023-04-01T05:41:22.459Z,9.57
2023-04-01T05:43:49.005Z,9.58
2023-04-01T05:46:17.977Z,9.70
2023-04-01T05:48:46.790Z,9.66
2023-04-01T05:51:17.121Z,9.63
2023-04-01T05:53:43.993Z,9.76
2023-04-01T05:56:10.545Z,9.68
2023-04-01T05:58:38.263Z,9.68
2023-04-01T06:01:14.123Z,9.75
2023-04-01T06:03:43.044Z,9.88
2023-04-01T06:06:26.686Z,9.88
2023-04-01T06:08:54.486Z,9.90
2023-04-01T06:11:45.597Z,9.81
2023-04-01T06:14:34.427Z,10.09
2023-04-01T06:17:07.147Z,10.09
2023-04-01T06:19:45.856Z,10.10
2023-04-01T06:22:40.199Z,10.20
2023-04-01T06:25:37.782Z,10.20
2023-04-01T06:28:22.411Z,10.27
2023-04-01T06:31:02.086Z,10.28
2023-04-01T06:33:30.977Z,10.10
2023-04-01T06:36:12.432Z,10.14
2023-04-01T06:39:23.881Z,10.14
2023-04-01T06:42:46.244Z,10.13
2023-04-01T06:45:48.475Z,10.09
2023-04-01T06:48:40.242Z,10.14
2023-04-01T06:51:23.573Z,10.15
2023-04-01T06:53:59.829Z,10.11
2023-04-01T06:56:29.628Z,10.05
2023-04-01T06:59:18.964Z,9.96
2023-04-01T07:02:11.509Z,10.04
2023-04-01T07:04:59.024Z,9.87
2023-04-01T07:07:36.195Z,9.79
2023-04-01T07:10:14.674Z,9.80
2023-04-01T07:12:47.317Z,9.92
2023-04-01T07:15:32.499Z,9.91
2023-04-01T07:18:18.665Z,10.02
2023-04-01T07:20:49.816Z,9.88
2023-04-01T07:23:23.556Z,9.90
2023-04-01T07:25:56.847Z,9.92
2023-04-01T07:28:23.326Z,9.84
2023-04-01T07:30:58.730Z,9.76
2023-04-01T07:33:51.120Z,9.78
2023-04-01T07:36:39.047Z,9.81
2023-04-01T07:39:14.434Z,9.73
2023-04-01T07:42:06.899Z,9.79
2023-04-01T07:45:09.880Z,9.85
2023-04-01T07:47:54.224Z,10.04
2023-04-01T07:50:29.743Z,9.99
2023-04-01T07:53:17.611Z,10.06
2023-04-01T07:56:09.414Z,10.01
2023-04-01T07:58:39.983Z,9.96
2023-04-01T08:01:31.456Z,10.07
2023-04-01T08:04:07.172Z,10.02
2023-04-01T08:06:41.271Z,10.15
2023-04-01T08:09:22.736Z,10.27
2023-04-01T08:11:52.344Z,10.24
2023-04-01T08:14:27.467Z,10.46
2023-04-01T08:17:20.288Z,10.25
2023-04-01T08:20:18.344Z,10.56
2023-04-01T08:23:25.103Z,10.58
2023-04-01T08:26:05.614Z,10.65
2023-04-01T08:29:01.137Z,11.06
2023-04-01T08:31:52.463Z,10.89
2023-04-01T08:34:27.160Z,11.06
2023-04-01T08:37:01.919Z,10.88
2023-04-01T08:39:36.943Z,10.90
2023-04-01T08:42:31.110Z,10.97
2023-04-01T08:45:03.510Z,10.84
2023-04-01T08:47:59.155Z,10.69
2023-04-01T08:50:37.468Z,10.76
2023-04-01T08:53:21.778Z,10.68
2023-04-01T08:56:04.298Z,10.57
2023-04-01T08:59:06.833Z,10.71
2023-04-01T09:01:59.400Z,10.82
2023-04-01T09:04:43.480Z,10.75
2023-04-01T09:07:31.443Z,10.78
2023-04-01T09:10:07.080Z,10.83
2023-04-01T09:12:58.988Z,10.88
2023-04-01T09:15:34.908Z,10.93
2023-04-01T09:18:01.640Z,10.99
2023-04-01T09:20:59.209Z,11.19
2023-04-01T09:23:34.745Z,11.14
2023-04-01T09:26:13.526Z,11.03
2023-04-01T09:28:51.956Z,11.07
2023-04-01T09:31:30.747Z,11.28
2023-04-01T09:34:03.039Z,11.23
2023-04-01T09:36:32.170Z,11.10
2023-04-01T09:39:36.862Z,11.00
2023-04-01T09:42:27.781Z,11.08
2023-04-01T09:45:35.649Z,11.04
2023-04-01T09:48:14.385Z,11.06
2023-04-01T09:51:02.765Z,10.98
2023-04-01T09:53:31.764Z,11.04
2023-04-01T09:56:21.018Z,10.71
2023-04-01T09:59:09.714Z,11.08
2023-04-01T10:02:22.917Z,10.88
2023-04-01T10:05:27.103Z,10.90
2023-04-01T10:08:17.803Z,10.91
2023-04-01T10:11:29.856Z,10.90
2023-04-01T10:14:30.378Z,10.95
2023-04-01T10:17:09.533Z,10.86
2023-04-01T10:19:41.867Z,10.72
2023-04-01T10:22:27.209Z,10.87
2023-04-01T10:25:31.815Z,10.88
2023-04-01T10:28:31.316Z,11.00
2023-04-01T10:31:16.122Z,11.13
2023-04-01T10:34:03.838Z,11.11
2023-04-01T10:36:47.614Z,11.00
2023-04-01T10:39:36.402Z,11.06
2023-04-01T10:42:40.408Z,11.19
2023-04-01T10:45:46.953Z,11.17
2023-04-01T10:48:24.446Z,11.20
2023-04-01T10:51:10.327Z,11.41
2023-04-01T10:53:52.757Z,11.15
2023-04-01T10:56:26.489Z,11.41
2023-04-01T10:59:08.987Z,11.43
2023-04-01T11:02:13.433Z,11.26
2023-04-01T11:05:36.988Z,11.02
2023-04-01T11:08:41.261Z,11.13
2023-04-01T11:11:55.961Z,11.32
2023-04-01T11:14:28.699Z,11.06
2023-04-01T11:16:55.259Z,11.12
2023-04-01T11:19:49.037Z,11.04
2023-04-01T11:22:30.408Z,11.12
2023-04-01T11:25:22.750Z,11.13
2023-04-01T11:28:03.268Z,11.14
2023-04-01T11:30:35.328Z,11.22
2023-04-01T11:33:27.957Z,11.22
2023-04-01T11:36:33.480Z,11.20
2023-04-01T11:39:25.162Z,11.11
2023-04-01T11:42:10.537Z,11.17
2023-04-01T11:44:46.088Z,11.20
2023-04-01T11:47:41.268Z,11.20
2023-04-01T11:50:19.122Z,11.32
2023-04-01T11:53:02.701Z,11.23
2023-04-01T11:55:36.737Z,11.23
2023-04-01T11:58:33.673Z,11.36
2023-04-01T12:01:20.759Z,11.33
2023-04-01T12:04:13.902Z,11.45
2023-04-01T12:06:46.237Z,11.49
2023-04-01T12:09:16.200Z,11.53
2023-04-01T12:11:42.544Z,11.50
2023-04-01T12:14:20.577Z,11.50
2023-04-01T12:16:56.326Z,11.57
2023-04-01T12:19:49.328Z,11.57
2023-04-01T12:22:33.773Z,11.68
2023-04-01T12:25:12.350Z,11.77
2023-04-01T12:27:51.929Z,11.71
2023-04-01T12:30:38.602Z,11.94
2023-04-01T12:33:23.477Z,11.92
2023-04-01T12:36:20.253Z,11.68
2023-04-01T12:39:24.188Z,11.61
2023-04-01T12:42:11.382Z,11.59
2023-04-01T12:44:50.602Z,11.78
2023-04-01T12:47:35.928Z,11.82
2023-04-01T12:50:27.379Z,11.98
2023-04-01T12:53:19.640Z,12.12
2023-04-01T12:55:51.508Z,12.09
2023-04-01T12:58:44.389Z,12.14
2023-04-01T13:01:22.454Z,12.11
2023-04-01T13:03:57.976Z,12.14
2023-04-01T13:06:53.563Z,12.28
2023-04-01T13:09:34.183Z,12.11
2023-04-01T13:12:37.430Z,12.12
2023-04-01T13:15:14.150Z,11.84
2023-04-01T13:18:13.140Z,12.08
2023-04-01T13:21:08.175Z,11.84
2023-04-01T13:24:16.670Z,11.87
2023-04-01T13:27:09.180Z,12.06
2023-04-01T13:29:42.036Z,12.11
2023-04-01T13:32:22.217Z,12.05
2023-04-01T13:35:08.185Z,12.16
2023-04-01T13:37:53.457Z,11.96
2023-04-01T13:40:46.771Z,11.99
2023-04-01T13:43:30.567Z,12.08
2023-04-01T13:46:28.920Z,12.02
2023-04-01T13:49:07.340Z,11.92
2023-04-01T13:52:09.719Z,12.02
2023-04-01T13:55:03.713Z,12.09
2023-04-01T13:57:53.694Z,12.23
2023-04-01T14:00:41.917Z,12.18
2023-04-01T14:03:32.647Z,12.25
2023-04-01T14:06:24.263Z,12.22
2023-04-01T14:09:12.321Z,12.27
2023-04-01T14:12:00.375Z,11.93
2023-04-01T14:15:08.309Z,11.97
2023-04-01T14:18:13.922Z,11.92
2023-04-01T14:21:04.881Z,11.88
2023-04-01T14:23:37.064Z,11.81
2023-04-01T14:26:22.122Z,11.93
2023-04-01T14:29:25.313Z,12.04
2023-04-01T14:31:51.830Z,11.80
2023-04-01T14:34:26.346Z,11.86
2023-04-01T14:37:30.462Z,11.77
2023-04-01T14:40:15.778Z,11.67
2023-04-01T14:43:11.197Z,11.69
2023-04-01T14:45:45.895Z,11.59
2023-04-01T14:48:37.333Z,11.53
2023-04-01T14:51:18.209Z,11.54
2023-04-01T14:54:03.109Z,11.62
2023-04-01T14:57:08.185Z,11.68
2023-04-01T14:59:40.922Z,11.73
2023-04-01T15:02:28.168Z,11.57
2023-04-01T15:05:13.293Z,11.55
2023-04-01T15:07:58.776Z,11.54
2023-04-01T15:10:40.965Z,11.57
2023-04-01T15:13:15.715Z,11.62
2023-04-01T15:15:57.352Z,11.41
2023-04-01T15:18:50.947Z,11.64
2023-04-01T15:21:28.844Z,11.53
2023-04-01T15:24:25.318Z,11.55
2023-04-01T15:26:51.622Z,11.44
2023-04-01T15:29:55.438Z,11.48
2023-04-01T15:32:53.090Z,11.50
2023-04-01T15:36:01.242Z,11.66
2023-04-01T15:38:52.868Z,11.55
2023-04-01T15:41:29.790Z,11.54
2023-04-01T15:43:56.317Z,11.59
2023-04-01T15:46:54.193Z,11.60
2023-04-01T15:50:12.150Z,11.61
2023-04-01T15:52:44.260Z,11.59
2023-04-01T15:55:21.977Z,11.56
2023-04-01T15:58:03.283Z,11.50
2023-04-01T16:00:33.837Z,11.60
2023-04-01T16:03:29.859Z,11.57
2023-04-01T16:06:03.069Z,11.69
2023-04-01T16:09:09.695Z,11.58
2023-04-01T16:11:55.665Z,11.58
2023-04-01T16:14:50.792Z,11.66
2023-04-01T16:17:32.438Z,11.77
2023-04-01T16:20:19.080Z,11.77
2023-04-01T16:22:54.310Z,11.72
2023-04-01T16:26:00.579Z,11.64
2023-04-01T16:28:51.676Z,11.57
2023-04-01T16:31:58.257Z,11.42
2023-04-01T16:34:42.655Z,11.49
2023-04-01T16:37:23.779Z,11.46
2023-04-01T16:40:17.043Z,11.38
2023-04-01T16:43:08.502Z,11.40
2023-04-01T16:45:39.170Z,11.51
2023-04-01T16:48:17.336Z,11.48
2023-04-01T16:50:48.562Z,11.38
2023-04-01T16:53:16.640Z,11.36
2023-04-01T16:56:05.894Z,11.40
2023-04-01T16:59:03.347Z,11.40
2023-04-01T17:01:48.438Z,11.41
2023-04-01T17:04:30.342Z,11.33
2023-04-01T17:07:08.709Z,11.26
2023-04-01T17:09:56.043Z,11.30
2023-04-01T17:12:39.646Z,11.19
2023-04-01T17:15:23.315Z,11.09
2023-04-01T17:18:07.447Z,11.09
2023-04-01T17:21:12.633Z,11.08
2023-04-01T17:23:39.077Z,11.10
2023-04-01T17:26:22.658Z,11.10
2023-04-01T17:28:57.852Z,11.04
2023-04-01T17:31:27.495Z,11.13
2023-04-01T17:34:24.415Z,11.02
2023-04-01T17:37:11.210Z,11.10
2023-04-01T17:40:08.827Z,11.06
2023-04-01T17:42:44.000Z,11.05
2023-04-01T17:45:10.452Z,10.99
2023-04-01T17:48:09.190Z,10.87
2023-04-01T17:50:35.943Z,10.92
2023-04-01T17:53:43.212Z,10.96
2023-04-01T17:56:18.685Z,10.85
2023-04-01T17:59:04.269Z,10.92
2023-04-01T18:01:56.887Z,10.86
2023-04-01T18:04:32.380Z,10.80
2023-04-01T18:07:19.952Z,10.77
2023-04-01T18:09:58.334Z,10.75
2023-04-01T18:12:33.807Z,10.76
2023-04-01T18:15:12.650Z,10.67
2023-04-01T18:17:46.926Z,10.59
2023-04-01T18:20:25.576Z,10.74
2023-04-01T18:22:57.818Z,10.65
2023-04-01T18:25:45.199Z,10.66
2023-04-01T18:28:42.568Z,10.64
2023-04-01T18:31:27.766Z,10.58
2023-04-01T18:33:54.311Z,10.52
2023-04-01T18:36:34.245Z,10.35
2023-04-01T18:39:38.016Z,10.19
2023-04-01T18:42:10.006Z,10.17
2023-04-01T18:44:57.328Z,10.19
2023-04-01T18:47:56.080Z,10.12
2023-04-01T18:50:37.992Z,10.14
2023-04-01T18:53:37.520Z,10.06
2023-04-01T18:56:05.826Z,9.96
2023-04-01T18:58:37.426Z,9.87
2023-04-01T19:01:23.026Z,9.80
2023-04-01T19:04:06.281Z,9.76
2023-04-01T19:06:59.715Z,9.85
2023-04-01T19:09:44.053Z,9.93
2023-04-01T19:12:16.492Z,9.79
2023-04-01T19:14:54.358Z,9.85
2023-04-01T19:17:53.816Z,9.88
2023-04-01T19:20:31.133Z,9.81
2023-04-01T19:23:34.899Z,9.83
2023-04-01T19:26:06.111Z,9.93
2023-04-01T19:29:00.195Z,9.89
2023-04-01T19:31:46.266Z,9.70
2023-04-01T19:34:25.836Z,9.64
2023-04-01T19:37:00.055Z,9.84
2023-04-01T19:40:08.002Z,9.96
2023-04-01T19:42:42.880Z,9.78
2023-04-01T19:45:15.046Z,9.79
2023-04-01T19:48:03.026Z,9.96
2023-04-01T19:50:41.302Z,10.06
2023-04-01T19:53:21.929Z,9.97
2023-04-01T19:55:59.970Z,9.98
2023-04-01T19:58:34.741Z,9.98
2023-04-01T20:01:04.090Z,9.95
2023-04-01T20:03:35.086Z,9.95
2023-04-01T20:06:14.528Z,10.08
2023-04-01T20:09:05.577Z,10.21
2023-04-01T20:11:59.396Z,10.20
2023-04-01T20:14:44.688Z,10.09
2023-04-01T20:17:17.825Z,10.11
2023-04-01T20:20:11.007Z,10.13
2023-04-01T20:22:46.557Z,10.04
2023-04-01T20:25:22.527Z,10.11
2023-04-01T20:27:55.921Z,10.02
2023-04-01T20:30:29.208Z,10.06
2023-04-01T20:33:27.560Z,9.95
2023-04-01T20:36:16.155Z,9.92
2023-04-01T20:39:18.806Z,9.87
2023-04-01T20:42:03.886Z,9.79
2023-04-01T20:45:17.372Z,9.78
2023-04-01T20:47:52.833Z,9.95
2023-04-01T20:50:35.785Z,10.02
2023-04-01T20:53:12.368Z,10.05
2023-04-01T20:55:59.855Z,10.07
2023-04-01T20:58:47.861Z,9.89
2023-04-01T21:01:36.557Z,9.95
2023-04-01T21:04:31.570Z,9.93
2023-04-01T21:07:51.337Z,9.79
2023-04-01T21:10:32.329Z,9.77
2023-04-01T21:13:17.714Z,9.81
2023-04-01T21:16:12.992Z,9.97
2023-04-01T21:18:46.168Z,9.93
2023-04-01T21:21:31.016Z,9.98
2023-04-01T21:24:44.526Z,10.09
2023-04-01T21:27:37.788Z,10.00
2023-04-01T21:30:41.940Z,9.88
2023-04-01T21:33:32.849Z,9.95
2023-04-01T21:36:19.700Z,9.98
2023-04-01T21:38:55.074Z,9.90
2023-04-01T21:41:32.324Z,9.91
2023-04-01T21:44:41.620Z,9.92
2023-04-01T21:47:20.113Z,9.92
2023-04-01T21:50:31.058Z,9.89
2023-04-01T21:53:03.100Z,9.81
2023-04-01T21:55:32.900Z,9.75
2023-04-01T21:58:21.417Z,9.81
2023-04-01T22:01:09.610Z,9.85
2023-04-01T22:03:59.467Z,9.87
2023-04-01T22:06:35.673Z,9.81
2023-04-01T22:09:22.155Z,9.73
2023-04-01T22:12:05.583Z,9.68
2023-04-01T22:14:44.635Z,9.73
2023-04-01T22:17:39.657Z,9.81
2023-04-01T22:20:16.161Z,9.65
2023-04-01T22:23:16.000Z,9.66
2023-04-01T22:25:51.732Z,9.47
2023-04-01T22:28:28.938Z,9.65
2023-04-01T22:31:04.178Z,9.64
2023-04-01T22:33:51.657Z,9.67
2023-04-01T22:36:49.218Z,9.62
2023-04-01T22:39:21.877Z,9.68
2023-04-01T22:42:14.022Z,9.55
2023-04-01T22:45:02.477Z,9.57
2023-04-01T22:47:58.294Z,9.72
2023-04-01T22:50:38.621Z,9.57
2023-04-01T22:53:44.668Z,9.66
2023-04-01T22:56:19.117Z,9.67
2023-04-01T22:59:01.329Z,9.56
2023-04-01T23:01:34.173Z,9.67
2023-04-01T23:04:04.197Z,9.72
2023-04-01T23:06:42.296Z,9.76
2023-04-01T23:09:20.644Z,9.70
2023-04-01T23:12:01.514Z,9.55
2023-04-01T23:14:47.343Z,9.57
2023-04-01T23:17:31.798Z,9.53
2023-04-01T23:20:32.022Z,9.43
2023-04-01T23:23:42.603Z,9.63
2023-04-01T23:26:14.300Z,9.47
2023-04-01T23:28:48.536Z,9.58
2023-04-01T23:31:32.274Z,9.49
2023-04-01T23:34:21.662Z,9.47
2023-04-01T23:36:51.686Z,9.26
2023-04-01T23:39:31.837Z,9.39
2023-04-01T23:42:05.828Z,9.38
2023-04-01T23:44:34.786Z,9.42
2023-04-01T23:47:03.702Z,9.30
2023-04-01T23:49:56.422Z,9.34
2023-04-01T23:52:33.919Z,9.29
2023-04-01T23:55:22.815Z,9.24
2023-04-01T23:58:08.833Z,9.21
